sensor_id;sensor_type;location;lat;lon;timestamp;pressure;altitude;pressure_sealevel;temperature;humidity
36192;BME280;22233;42.708;23.360;2024-03-08T00:00:14;95429.97;;;8.20;70.79
36192;BME280;22233;42.708;23.360;2024-03-08T00:02:40;95445.22;;;8.49;70.39
36192;BME280;22233;42.708;23.360;2024-03-08T00:05:07;95443.91;;;8.47;70.75
36192;BME280;22233;42.708;23.360;2024-03-08T00:07:36;95443.91;;;8.47;71.28
36192;BME280;22233;42.708;23.360;2024-03-08T00:10:03;95444.00;;;8.42;71.60
36192;BME280;22233;42.708;23.360;2024-03-08T00:12:28;95436.00;;;8.50;70.88
36192;BME280;22233;42.708;23.360;2024-03-08T00:14:54;95434.47;;;8.44;71.17
36192;BME280;22233;42.708;23.360;2024-03-08T00:17:20;95431.31;;;8.23;71.78
36192;BME280;22233;42.708;23.360;2024-03-08T00:19:48;95415.06;;;8.37;70.77
36192;BME280;22233;42.708;23.360;2024-03-08T00:22:15;95441.34;;;8.69;70.57
36192;BME280;22233;42.708;23.360;2024-03-08T00:24:41;95440.84;;;8.34;70.24
36192;BME280;22233;42.708;23.360;2024-03-08T00:27:06;95443.03;;;8.51;70.29
36192;BME280;22233;42.708;23.360;2024-03-08T00:29:31;95434.81;;;8.24;70.90
36192;BME280;22233;42.708;23.360;2024-03-08T00:31:57;95429.72;;;8.36;71.65
36192;BME280;22233;42.708;23.360;2024-03-08T00:34:29;95440.09;;;8.48;71.32
36192;BME280;22233;42.708;23.360;2024-03-08T00:36:55;95420.50;;;8.23;71.76
36192;BME280;22233;42.708;23.360;2024-03-08T00:39:20;95420.72;;;8.40;71.13
36192;BME280;22233;42.708;23.360;2024-03-08T00:41:46;95428.38;;;8.52;71.85
36192;BME280;22233;42.708;23.360;2024-03-08T00:44:12;95431.03;;;8.38;72.14
36192;BME280;22233;42.708;23.360;2024-03-08T00:46:37;95418.09;;;8.35;72.56
36192;BME280;22233;42.708;23.360;2024-03-08T00:49:03;95424.78;;;8.24;71.80
36192;BME280;22233;42.708;23.360;2024-03-08T00:51:28;95426.31;;;8.30;72.24
36192;BME280;22233;42.708;23.360;2024-03-08T00:53:54;95419.84;;;8.12;72.34
36192;BME280;22233;42.708;23.360;2024-03-08T00:56:19;95413.88;;;7.96;72.58
36192;BME280;22233;42.708;23.360;2024-03-08T00:58:45;95382.31;;;7.92;72.91
36192;BME280;22233;42.708;23.360;2024-03-08T01:01:10;95422.34;;;8.09;72.46
36192;BME280;22233;42.708;23.360;2024-03-08T01:03:37;95402.22;;;7.82;73.43
36192;BME280;22233;42.708;23.360;2024-03-08T01:06:03;95389.97;;;7.71;73.77
36192;BME280;22233;42.708;23.360;2024-03-08T01:08:29;95405.88;;;7.91;74.21
36192;BME280;22233;42.708;23.360;2024-03-08T01:10:55;95398.13;;;7.85;73.45
36192;BME280;22233;42.708;23.360;2024-03-08T01:13:20;95401.94;;;7.84;74.67
36192;BME280;22233;42.708;23.360;2024-03-08T01:15:46;95387.47;;;7.74;74.76
36192;BME280;22233;42.708;23.360;2024-03-08T01:18:11;95394.50;;;7.56;74.90
36192;BME280;22233;42.708;23.360;2024-03-08T01:20:37;95394.72;;;7.60;75.14
36192;BME280;22233;42.708;23.360;2024-03-08T01:23:03;95381.19;;;7.79;74.40
36192;BME280;22233;42.708;23.360;2024-03-08T01:25:32;95391.16;;;7.65;74.48
36192;BME280;22233;42.708;23.360;2024-03-08T01:27:58;95369.53;;;7.65;73.86
36192;BME280;22233;42.708;23.360;2024-03-08T01:30:23;95362.94;;;7.71;72.79
36192;BME280;22233;42.708;23.360;2024-03-08T01:32:49;95381.78;;;7.76;73.72
36192;BME280;22233;42.708;23.360;2024-03-08T01:35:14;95379.13;;;7.90;73.10
36192;BME280;22233;42.708;23.360;2024-03-08T01:37:39;95378.91;;;7.86;73.01
36192;BME280;22233;42.708;23.360;2024-03-08T01:40:05;95367.03;;;8.01;72.66
36192;BME280;22233;42.708;23.360;2024-03-08T01:42:32;95384.28;;;8.05;72.36
36192;BME280;22233;42.708;23.360;2024-03-08T01:44:57;95374.50;;;7.90;71.80
36192;BME280;22233;42.708;23.360;2024-03-08T01:47:23;95370.31;;;7.98;72.35
36192;BME280;22233;42.708;23.360;2024-03-08T01:49:49;95371.72;;;7.95;72.14
36192;BME280;22233;42.708;23.360;2024-03-08T01:52:16;95380.75;;;8.05;72.08
36192;BME280;22233;42.708;23.360;2024-03-08T01:54:44;95360.47;;;8.21;72.06
36192;BME280;22233;42.708;23.360;2024-03-08T01:57:10;95372.78;;;8.27;71.33
36192;BME280;22233;42.708;23.360;2024-03-08T01:59:36;95371.94;;;7.99;72.07
36192;BME280;22233;42.708;23.360;2024-03-08T02:02:03;95370.34;;;8.12;72.30
36192;BME280;22233;42.708;23.360;2024-03-08T02:04:31;95359.94;;;8.19;71.86
36192;BME280;22233;42.708;23.360;2024-03-08T02:06:56;95368.16;;;8.14;72.02
36192;BME280;22233;42.708;23.360;2024-03-08T02:09:23;95374.25;;;8.06;69.89
36192;BME280;22233;42.708;23.360;2024-03-08T02:11:50;95370.94;;;8.09;70.41
36192;BME280;22233;42.708;23.360;2024-03-08T02:14:16;95370.06;;;7.80;70.97
36192;BME280;22233;42.708;23.360;2024-03-08T02:16:42;95364.03;;;7.70;71.61
36192;BME280;22233;42.708;23.360;2024-03-08T02:19:07;95371.19;;;7.60;72.37
36192;BME280;22233;42.708;23.360;2024-03-08T02:21:35;95382.84;;;7.61;71.45
36192;BME280;22233;42.708;23.360;2024-03-08T02:24:01;95373.06;;;7.27;72.64
36192;BME280;22233;42.708;23.360;2024-03-08T02:26:26;95370.34;;;7.46;72.09
36192;BME280;22233;42.708;23.360;2024-03-08T02:28:52;95381.09;;;7.32;72.11
36192;BME280;22233;42.708;23.360;2024-03-08T02:31:17;95379.47;;;6.93;73.36
36192;BME280;22233;42.708;23.360;2024-03-08T02:33:43;95372.72;;;6.72;73.40
36192;BME280;22233;42.708;23.360;2024-03-08T02:36:08;95377.78;;;6.78;73.37
36192;BME280;22233;42.708;23.360;2024-03-08T02:38:34;95390.75;;;6.76;73.23
36192;BME280;22233;42.708;23.360;2024-03-08T02:40:59;95387.84;;;6.73;72.31
36192;BME280;22233;42.708;23.360;2024-03-08T02:43:24;95381.63;;;6.72;71.45
36192;BME280;22233;42.708;23.360;2024-03-08T02:45:50;95391.81;;;6.99;70.40
36192;BME280;22233;42.708;23.360;2024-03-08T02:48:18;95397.59;;;7.12;69.71
36192;BME280;22233;42.708;23.360;2024-03-08T02:50:43;95371.50;;;7.02;69.24
36192;BME280;22233;42.708;23.360;2024-03-08T02:53:10;95399.84;;;7.24;69.03
36192;BME280;22233;42.708;23.360;2024-03-08T02:55:36;95387.59;;;7.31;69.07
36192;BME280;22233;42.708;23.360;2024-03-08T02:58:03;95389.53;;;6.88;68.96
36192;BME280;22233;42.708;23.360;2024-03-08T03:00:28;95384.31;;;6.96;69.14
36192;BME280;22233;42.708;23.360;2024-03-08T03:02:58;95386.34;;;7.05;67.96
36192;BME280;22233;42.708;23.360;2024-03-08T03:05:24;95386.78;;;6.93;68.71
36192;BME280;22233;42.708;23.360;2024-03-08T03:07:50;95371.31;;;6.98;67.50
36192;BME280;22233;42.708;23.360;2024-03-08T03:10:19;95386.91;;;7.02;68.02
36192;BME280;22233;42.708;23.360;2024-03-08T03:12:48;95372.41;;;6.97;67.66
36192;BME280;22233;42.708;23.360;2024-03-08T03:15:17;95377.75;;;7.03;67.95
36192;BME280;22233;42.708;23.360;2024-03-08T03:17:50;95393.56;;;7.09;67.69
36192;BME280;22233;42.708;23.360;2024-03-08T03:20:19;95403.22;;;7.15;67.50
36192;BME280;22233;42.708;23.360;2024-03-08T03:22:51;95394.59;;;7.13;67.38
36192;BME280;22233;42.708;23.360;2024-03-08T03:25:20;95391.38;;;7.30;66.76
36192;BME280;22233;42.708;23.360;2024-03-08T03:27:51;95405.78;;;7.26;67.39
36192;BME280;22233;42.708;23.360;2024-03-08T03:30:16;95407.91;;;7.29;67.13
36192;BME280;22233;42.708;23.360;2024-03-08T03:32:48;95399.16;;;7.37;66.86
36192;BME280;22233;42.708;23.360;2024-03-08T03:35:14;95414.47;;;7.42;66.74
36192;BME280;22233;42.708;23.360;2024-03-08T03:37:40;95412.28;;;7.44;65.89
36192;BME280;22233;42.708;23.360;2024-03-08T03:40:08;95412.34;;;7.19;66.62
36192;BME280;22233;42.708;23.360;2024-03-08T03:42:34;95407.41;;;7.27;66.91
36192;BME280;22233;42.708;23.360;2024-03-08T03:44:59;95413.09;;;7.25;66.82
36192;BME280;22233;42.708;23.360;2024-03-08T03:47:25;95418.56;;;7.39;66.04
36192;BME280;22233;42.708;23.360;2024-03-08T03:49:51;95430.91;;;7.45;66.52
36192;BME280;22233;42.708;23.360;2024-03-08T03:52:18;95430.59;;;7.09;66.92
36192;BME280;22233;42.708;23.360;2024-03-08T03:54:44;95425.63;;;6.97;67.03
36192;BME280;22233;42.708;23.360;2024-03-08T03:57:09;95432.22;;;6.86;68.28
36192;BME280;22233;42.708;23.360;2024-03-08T03:59:34;95438.25;;;6.53;69.01
36192;BME280;22233;42.708;23.360;2024-03-08T04:02:00;95431.38;;;6.42;69.40
36192;BME280;22233;42.708;23.360;2024-03-08T04:04:25;95439.69;;;6.70;69.17
36192;BME280;22233;42.708;23.360;2024-03-08T04:06:50;95431.47;;;6.56;69.29
36192;BME280;22233;42.708;23.360;2024-03-08T04:09:16;95439.53;;;6.61;68.52
36192;BME280;22233;42.708;23.360;2024-03-08T04:11:44;95437.75;;;6.75;68.92
36192;BME280;22233;42.708;23.360;2024-03-08T04:14:09;95432.34;;;6.51;69.32
36192;BME280;22233;42.708;23.360;2024-03-08T04:16:35;95447.34;;;6.87;68.77
36192;BME280;22233;42.708;23.360;2024-03-08T04:19:01;95430.91;;;6.83;69.00
36192;BME280;22233;42.708;23.360;2024-03-08T04:21:30;95450.84;;;6.87;69.23
36192;BME280;22233;42.708;23.360;2024-03-08T04:23:55;95456.06;;;6.78;69.50
36192;BME280;22233;42.708;23.360;2024-03-08T04:26:21;95449.53;;;6.60;70.11
36192;BME280;22233;42.708;23.360;2024-03-08T04:28:46;95451.94;;;6.86;70.37
36192;BME280;22233;42.708;23.360;2024-03-08T04:31:12;95450.53;;;7.13;69.57
36192;BME280;22233;42.708;23.360;2024-03-08T04:33:37;95444.38;;;7.07;69.90
36192;BME280;22233;42.708;23.360;2024-03-08T04:36:04;95456.00;;;7.08;70.86
36192;BME280;22233;42.708;23.360;2024-03-08T04:38:29;95462.19;;;7.08;71.21
36192;BME280;22233;42.708;23.360;2024-03-08T04:40:56;95462.84;;;7.43;70.38
36192;BME280;22233;42.708;23.360;2024-03-08T04:43:22;95475.03;;;7.40;70.36
36192;BME280;22233;42.708;23.360;2024-03-08T04:45:50;95471.09;;;7.52;70.07
36192;BME280;22233;42.708;23.360;2024-03-08T04:48:16;95452.44;;;7.50;70.36
36192;BME280;22233;42.708;23.360;2024-03-08T04:50:41;95466.41;;;7.57;70.40
36192;BME280;22233;42.708;23.360;2024-03-08T04:53:07;95476.78;;;7.69;70.33
36192;BME280;22233;42.708;23.360;2024-03-08T04:55:34;95477.16;;;7.82;70.07
36192;BME280;22233;42.708;23.360;2024-03-08T04:57:59;95479.84;;;7.82;69.83
36192;BME280;22233;42.708;23.360;2024-03-08T05:00:24;95471.81;;;7.76;69.65
36192;BME280;22233;42.708;23.360;2024-03-08T05:02:50;95479.63;;;7.78;70.03
36192;BME280;22233;42.708;23.360;2024-03-08T05:05:18;95484.75;;;7.79;70.30
36192;BME280;22233;42.708;23.360;2024-03-08T05:07:44;95465.59;;;7.76;69.94
36192;BME280;22233;42.708;23.360;2024-03-08T05:10:10;95492.19;;;7.88;69.83
36192;BME280;22233;42.708;23.360;2024-03-08T05:12:36;95482.47;;;7.87;69.88
36192;BME280;22233;42.708;23.360;2024-03-08T05:15:04;95500.81;;;7.52;71.33
36192;BME280;22233;42.708;23.360;2024-03-08T05:17:30;95498.34;;;7.55;70.50
36192;BME280;22233;42.708;23.360;2024-03-08T05:19:55;95487.69;;;7.83;69.33
36192;BME280;22233;42.708;23.360;2024-03-08T05:22:21;95501.03;;;7.74;68.33
36192;BME280;22233;42.708;23.360;2024-03-08T05:24:46;95500.47;;;7.77;68.52
36192;BME280;22233;42.708;23.360;2024-03-08T05:27:11;95518.09;;;7.75;68.93
36192;BME280;22233;42.708;23.360;2024-03-08T05:29:38;95520.13;;;7.83;68.07
36192;BME280;22233;42.708;23.360;2024-03-08T05:32:03;95529.09;;;7.78;68.53
36192;BME280;22233;42.708;23.360;2024-03-08T05:34:29;95527.88;;;7.90;66.95
36192;BME280;22233;42.708;23.360;2024-03-08T05:36:55;95535.84;;;7.81;66.97
36192;BME280;22233;42.708;23.360;2024-03-08T05:39:20;95537.91;;;7.89;67.57
36192;BME280;22233;42.708;23.360;2024-03-08T05:41:46;95535.41;;;7.93;67.76
36192;BME280;22233;42.708;23.360;2024-03-08T05:44:12;95543.13;;;7.80;67.71
36192;BME280;22233;42.708;23.360;2024-03-08T05:46:38;95546.22;;;7.74;67.71
36192;BME280;22233;42.708;23.360;2024-03-08T05:49:04;95535.75;;;7.67;67.28
36192;BME280;22233;42.708;23.360;2024-03-08T05:51:36;95548.81;;;7.60;68.25
36192;BME280;22233;42.708;23.360;2024-03-08T05:54:03;95556.13;;;7.59;68.10
36192;BME280;22233;42.708;23.360;2024-03-08T05:56:33;95555.25;;;7.64;67.77
36192;BME280;22233;42.708;23.360;2024-03-08T05:58:58;95549.25;;;7.48;67.61
36192;BME280;22233;42.708;23.360;2024-03-08T06:01:24;95566.72;;;7.56;67.16
36192;BME280;22233;42.708;23.360;2024-03-08T06:03:51;95559.34;;;7.43;68.07
36192;BME280;22233;42.708;23.360;2024-03-08T06:06:16;95567.09;;;7.49;67.90
36192;BME280;22233;42.708;23.360;2024-03-08T06:08:43;95568.16;;;7.48;67.45
36192;BME280;22233;42.708;23.360;2024-03-08T06:11:09;95572.53;;;7.44;67.63
36192;BME280;22233;42.708;23.360;2024-03-08T06:13:35;95561.19;;;7.23;67.29
36192;BME280;22233;42.708;23.360;2024-03-08T06:16:01;95567.38;;;7.24;66.99
36192;BME280;22233;42.708;23.360;2024-03-08T06:18:30;95565.81;;;7.17;67.97
36192;BME280;22233;42.708;23.360;2024-03-08T06:20:55;95562.72;;;7.29;68.03
36192;BME280;22233;42.708;23.360;2024-03-08T06:23:20;95567.03;;;7.30;67.06
36192;BME280;22233;42.708;23.360;2024-03-08T06:25:46;95581.16;;;7.46;67.54
36192;BME280;22233;42.708;23.360;2024-03-08T06:28:12;95576.06;;;7.45;67.20
36192;BME280;22233;42.708;23.360;2024-03-08T06:30:39;95589.28;;;7.46;67.98
36192;BME280;22233;42.708;23.360;2024-03-08T06:33:05;95584.25;;;7.34;67.37
36192;BME280;22233;42.708;23.360;2024-03-08T06:35:30;95580.97;;;6.89;69.36
36192;BME280;22233;42.708;23.360;2024-03-08T06:37:57;95577.75;;;7.16;68.75
36192;BME280;22233;42.708;23.360;2024-03-08T06:40:23;95588.44;;;7.51;67.35
36192;BME280;22233;42.708;23.360;2024-03-08T06:42:48;95585.13;;;7.54;67.35
36192;BME280;22233;42.708;23.360;2024-03-08T06:45:14;95585.31;;;7.14;67.61
36192;BME280;22233;42.708;23.360;2024-03-08T06:47:44;95585.41;;;7.28;67.66
36192;BME280;22233;42.708;23.360;2024-03-08T06:50:11;95583.72;;;7.37;66.85
36192;BME280;22233;42.708;23.360;2024-03-08T06:52:36;95588.19;;;7.23;67.97
36192;BME280;22233;42.708;23.360;2024-03-08T06:55:02;95593.25;;;7.30;66.84
36192;BME280;22233;42.708;23.360;2024-03-08T06:57:28;95585.38;;;7.57;66.85
36192;BME280;22233;42.708;23.360;2024-03-08T06:59:54;95597.16;;;7.67;67.20
36192;BME280;22233;42.708;23.360;2024-03-08T07:02:20;95588.94;;;7.29;67.46
36192;BME280;22233;42.708;23.360;2024-03-08T07:04:49;95591.97;;;7.22;68.25
36192;BME280;22233;42.708;23.360;2024-03-08T07:07:15;95597.56;;;7.31;67.22
36192;BME280;22233;42.708;23.360;2024-03-08T07:09:41;95591.94;;;7.51;66.46
36192;BME280;22233;42.708;23.360;2024-03-08T07:12:09;95605.88;;;7.58;66.41
36192;BME280;22233;42.708;23.360;2024-03-08T07:14:36;95599.22;;;7.75;66.19
36192;BME280;22233;42.708;23.360;2024-03-08T07:17:06;95599.78;;;7.72;66.57
36192;BME280;22233;42.708;23.360;2024-03-08T07:19:33;95596.81;;;7.49;66.63
36192;BME280;22233;42.708;23.360;2024-03-08T07:21:58;95613.91;;;7.69;67.11
36192;BME280;22233;42.708;23.360;2024-03-08T07:24:24;95606.44;;;7.79;66.84
36192;BME280;22233;42.708;23.360;2024-03-08T07:27:07;95610.22;;;7.78;67.69
36192;BME280;22233;42.708;23.360;2024-03-08T07:29:33;95608.72;;;7.91;67.70
36192;BME280;22233;42.708;23.360;2024-03-08T07:32:01;95605.41;;;7.75;66.68
36192;BME280;22233;42.708;23.360;2024-03-08T07:34:45;95607.03;;;7.52;68.16
36192;BME280;22233;42.708;23.360;2024-03-08T07:37:10;95613.03;;;7.73;66.89
36192;BME280;22233;42.708;23.360;2024-03-08T07:39:37;95607.91;;;7.72;66.08
36192;BME280;22233;42.708;23.360;2024-03-08T07:42:03;95620.34;;;7.49;65.95
36192;BME280;22233;42.708;23.360;2024-03-08T07:44:29;95619.59;;;7.67;66.09
36192;BME280;22233;42.708;23.360;2024-03-08T07:46:56;95610.31;;;7.73;66.10
36192;BME280;22233;42.708;23.360;2024-03-08T07:49:21;95623.34;;;7.47;67.98
36192;BME280;22233;42.708;23.360;2024-03-08T07:51:46;95619.47;;;7.53;67.50
36192;BME280;22233;42.708;23.360;2024-03-08T07:54:12;95619.31;;;7.69;66.34
36192;BME280;22233;42.708;23.360;2024-03-08T07:56:38;95615.56;;;7.65;66.94
36192;BME280;22233;42.708;23.360;2024-03-08T07:59:03;95608.13;;;7.94;65.25
36192;BME280;22233;42.708;23.360;2024-03-08T08:01:29;95608.41;;;8.17;65.29
36192;BME280;22233;42.708;23.360;2024-03-08T08:03:56;95604.03;;;7.78;65.04
36192;BME280;22233;42.708;23.360;2024-03-08T08:06:21;95606.78;;;7.97;64.91
36192;BME280;22233;42.708;23.360;2024-03-08T08:08:47;95613.72;;;8.03;63.94
36192;BME280;22233;42.708;23.360;2024-03-08T08:11:12;95601.88;;;8.18;63.78
36192;BME280;22233;42.708;23.360;2024-03-08T08:13:38;95602.06;;;8.40;63.19
36192;BME280;22233;42.708;23.360;2024-03-08T08:16:04;95618.56;;;8.25;62.44
36192;BME280;22233;42.708;23.360;2024-03-08T08:18:31;95614.00;;;8.58;62.54
36192;BME280;22233;42.708;23.360;2024-03-08T08:20:58;95615.69;;;8.73;62.01
36192;BME280;22233;42.708;23.360;2024-03-08T08:23:25;95609.59;;;8.63;60.90
36192;BME280;22233;42.708;23.360;2024-03-08T08:25:51;95620.63;;;8.85;61.33
36192;BME280;22233;42.708;23.360;2024-03-08T08:28:17;95610.25;;;9.06;61.03
36192;BME280;22233;42.708;23.360;2024-03-08T08:30:43;95594.88;;;8.69;58.69
36192;BME280;22233;42.708;23.360;2024-03-08T08:33:09;95611.78;;;8.79;58.44
36192;BME280;22233;42.708;23.360;2024-03-08T08:35:34;95618.56;;;8.44;61.41
36192;BME280;22233;42.708;23.360;2024-03-08T08:37:59;95622.50;;;8.14;62.42
36192;BME280;22233;42.708;23.360;2024-03-08T08:40:25;95605.22;;;8.10;61.56
36192;BME280;22233;42.708;23.360;2024-03-08T08:42:51;95614.22;;;8.24;62.18
36192;BME280;22233;42.708;23.360;2024-03-08T08:45:18;95606.44;;;8.42;61.93
36192;BME280;22233;42.708;23.360;2024-03-08T08:47:44;95596.97;;;8.01;62.68
36192;BME280;22233;42.708;23.360;2024-03-08T08:50:10;95593.63;;;8.09;63.01
36192;BME280;22233;42.708;23.360;2024-03-08T08:52:39;95602.59;;;8.43;62.26
36192;BME280;22233;42.708;23.360;2024-03-08T08:55:05;95580.53;;;7.97;62.88
36192;BME280;22233;42.708;23.360;2024-03-08T08:57:32;95595.94;;;8.16;61.25
36192;BME280;22233;42.708;23.360;2024-03-08T08:59:58;95600.41;;;8.26;61.32
36192;BME280;22233;42.708;23.360;2024-03-08T09:02:25;95600.47;;;8.20;62.16
36192;BME280;22233;42.708;23.360;2024-03-08T09:04:51;95599.75;;;8.34;62.84
36192;BME280;22233;42.708;23.360;2024-03-08T09:07:16;95603.09;;;8.64;62.57
36192;BME280;22233;42.708;23.360;2024-03-08T09:09:44;95587.06;;;9.00;61.25
36192;BME280;22233;42.708;23.360;2024-03-08T09:12:09;95589.56;;;9.10;61.01
36192;BME280;22233;42.708;23.360;2024-03-08T09:14:41;95587.66;;;9.11;61.36
36192;BME280;22233;42.708;23.360;2024-03-08T09:17:07;95583.25;;;9.15;61.07
36192;BME280;22233;42.708;23.360;2024-03-08T09:19:35;95587.78;;;9.19;59.83
36192;BME280;22233;42.708;23.360;2024-03-08T09:22:02;95590.63;;;9.42;59.44
36192;BME280;22233;42.708;23.360;2024-03-08T09:24:29;95573.63;;;9.50;59.59
36192;BME280;22233;42.708;23.360;2024-03-08T09:26:54;95588.19;;;9.54;60.39
36192;BME280;22233;42.708;23.360;2024-03-08T09:29:20;95592.69;;;9.87;60.09
36192;BME280;22233;42.708;23.360;2024-03-08T09:31:45;95597.03;;;9.46;58.57
36192;BME280;22233;42.708;23.360;2024-03-08T09:34:11;95586.28;;;9.27;58.88
36192;BME280;22233;42.708;23.360;2024-03-08T09:36:36;95592.22;;;9.57;58.32
36192;BME280;22233;42.708;23.360;2024-03-08T09:39:02;95590.41;;;9.52;58.51
36192;BME280;22233;42.708;23.360;2024-03-08T09:41:28;95576.84;;;9.66;58.81
36192;BME280;22233;42.708;23.360;2024-03-08T09:43:56;95594.78;;;9.90;60.16
36192;BME280;22233;42.708;23.360;2024-03-08T09:46:24;95592.31;;;10.16;57.46
36192;BME280;22233;42.708;23.360;2024-03-08T09:48:50;95586.06;;;10.29;57.71
36192;BME280;22233;42.708;23.360;2024-03-08T09:51:16;95595.00;;;10.44;58.02
36192;BME280;22233;42.708;23.360;2024-03-08T09:53:41;95589.25;;;10.45;57.43
36192;BME280;22233;42.708;23.360;2024-03-08T09:56:10;95589.34;;;9.90;58.18
36192;BME280;22233;42.708;23.360;2024-03-08T09:58:37;95575.63;;;9.72;58.50
36192;BME280;22233;42.708;23.360;2024-03-08T10:01:17;95588.50;;;10.17;59.37
36192;BME280;22233;42.708;23.360;2024-03-08T10:03:43;95587.28;;;10.37;54.69
36192;BME280;22233;42.708;23.360;2024-03-08T10:06:09;95587.72;;;10.30;55.83
36192;BME280;22233;42.708;23.360;2024-03-08T10:08:35;95602.28;;;10.79;54.18
36192;BME280;22233;42.708;23.360;2024-03-08T10:11:01;95593.09;;;10.89;53.17
36192;BME280;22233;42.708;23.360;2024-03-08T10:13:27;95598.00;;;10.78;54.61
36192;BME280;22233;42.708;23.360;2024-03-08T10:15:53;95602.03;;;10.90;54.91
36192;BME280;22233;42.708;23.360;2024-03-08T10:18:19;95590.63;;;10.79;54.65
36192;BME280;22233;42.708;23.360;2024-03-08T10:20:44;95601.34;;;11.07;55.00
36192;BME280;22233;42.708;23.360;2024-03-08T10:23:09;95582.84;;;11.17;54.28
36192;BME280;22233;42.708;23.360;2024-03-08T10:25:36;95589.84;;;10.78;55.06
36192;BME280;22233;42.708;23.360;2024-03-08T10:28:05;95579.81;;;11.19;55.34
36192;BME280;22233;42.708;23.360;2024-03-08T10:30:30;95588.91;;;11.14;53.29
36192;BME280;22233;42.708;23.360;2024-03-08T10:32:56;95586.84;;;10.89;53.72
36192;BME280;22233;42.708;23.360;2024-03-08T10:35:21;95591.31;;;10.85;53.98
36192;BME280;22233;42.708;23.360;2024-03-08T10:37:49;95588.59;;;10.85;54.06
36192;BME280;22233;42.708;23.360;2024-03-08T10:40:18;95582.91;;;10.95;55.39
36192;BME280;22233;42.708;23.360;2024-03-08T10:42:58;95576.53;;;10.99;55.21
36192;BME280;22233;42.708;23.360;2024-03-08T10:47:55;95558.75;;;10.93;55.08
36192;BME280;22233;42.708;23.360;2024-03-08T10:50:25;95565.19;;;11.06;54.84
36192;BME280;22233;42.708;23.360;2024-03-08T10:52:51;95566.16;;;11.10;52.98
36192;BME280;22233;42.708;23.360;2024-03-08T10:55:18;95574.91;;;10.98;53.25
36192;BME280;22233;42.708;23.360;2024-03-08T10:57:46;95569.13;;;10.46;53.26
36192;BME280;22233;42.708;23.360;2024-03-08T11:00:13;95565.19;;;10.52;53.59
36192;BME280;22233;42.708;23.360;2024-03-08T11:02:42;95563.22;;;10.67;54.68
36192;BME280;22233;42.708;23.360;2024-03-08T11:05:31;95554.00;;;10.54;54.16
36192;BME280;22233;42.708;23.360;2024-03-08T11:08:01;95564.22;;;10.71;53.73
36192;BME280;22233;42.708;23.360;2024-03-08T11:10:27;95564.06;;;10.53;53.49
36192;BME280;22233;42.708;23.360;2024-03-08T11:12:53;95548.31;;;10.64;54.85
36192;BME280;22233;42.708;23.360;2024-03-08T11:15:18;95544.75;;;10.77;51.37
36192;BME280;22233;42.708;23.360;2024-03-08T11:17:48;95540.69;;;10.44;52.71
36192;BME280;22233;42.708;23.360;2024-03-08T11:20:15;95546.34;;;10.56;52.44
36192;BME280;22233;42.708;23.360;2024-03-08T11:22:42;95547.59;;;11.04;53.71
36192;BME280;22233;42.708;23.360;2024-03-08T11:28:25;95548.81;;;11.29;48.59
36192;BME280;22233;42.708;23.360;2024-03-08T11:33:25;95528.00;;;11.73;49.65
36192;BME280;22233;42.708;23.360;2024-03-08T11:35:51;95530.16;;;11.93;48.62
36192;BME280;22233;42.708;23.360;2024-03-08T11:38:17;95496.47;;;11.80;49.95
36192;BME280;22233;42.708;23.360;2024-03-08T11:40:46;95525.69;;;11.97;48.77
36192;BME280;22233;42.708;23.360;2024-03-08T11:43:16;95521.75;;;11.64;48.90
36192;BME280;22233;42.708;23.360;2024-03-08T11:45:41;95529.53;;;12.14;48.52
36192;BME280;22233;42.708;23.360;2024-03-08T11:48:07;95527.94;;;12.22;47.03
36192;BME280;22233;42.708;23.360;2024-03-08T11:50:32;95513.84;;;12.19;47.50
36192;BME280;22233;42.708;23.360;2024-03-08T11:53:04;95522.41;;;11.69;46.61
36192;BME280;22233;42.708;23.360;2024-03-08T11:55:31;95505.41;;;11.72;48.66
36192;BME280;22233;42.708;23.360;2024-03-08T11:58:04;95521.50;;;12.00;48.03
36192;BME280;22233;42.708;23.360;2024-03-08T12:00:30;95515.91;;;11.96;47.89
36192;BME280;22233;42.708;23.360;2024-03-08T12:03:08;95518.13;;;12.29;48.28
36192;BME280;22233;42.708;23.360;2024-03-08T12:05:37;95511.44;;;12.18;50.33
36192;BME280;22233;42.708;23.360;2024-03-08T12:08:03;95519.75;;;12.30;49.12
36192;BME280;22233;42.708;23.360;2024-03-08T12:10:32;95506.44;;;12.46;49.02
36192;BME280;22233;42.708;23.360;2024-03-08T12:12:58;95520.28;;;12.97;48.40
36192;BME280;22233;42.708;23.360;2024-03-08T12:15:28;95522.00;;;12.28;47.74
36192;BME280;22233;42.708;23.360;2024-03-08T12:17:55;95520.22;;;12.32;49.04
36192;BME280;22233;42.708;23.360;2024-03-08T12:20:23;95518.31;;;12.42;48.32
36192;BME280;22233;42.708;23.360;2024-03-08T12:22:52;95514.09;;;12.70;48.14
36192;BME280;22233;42.708;23.360;2024-03-08T12:25:18;95524.84;;;12.67;47.52
36192;BME280;22233;42.708;23.360;2024-03-08T12:27:45;95529.97;;;12.68;49.11
36192;BME280;22233;42.708;23.360;2024-03-08T12:32:51;95508.94;;;12.86;48.15
36192;BME280;22233;42.708;23.360;2024-03-08T12:35:19;95497.38;;;12.89;48.90
36192;BME280;22233;42.708;23.360;2024-03-08T12:37:50;95505.84;;;12.96;48.10
36192;BME280;22233;42.708;23.360;2024-03-08T12:40:18;95512.31;;;13.22;46.53
36192;BME280;22233;42.708;23.360;2024-03-08T12:42:45;95505.72;;;13.40;46.45
36192;BME280;22233;42.708;23.360;2024-03-08T12:45:14;95509.88;;;13.46;45.47
36192;BME280;22233;42.708;23.360;2024-03-08T12:47:40;95500.63;;;13.59;44.46
36192;BME280;22233;42.708;23.360;2024-03-08T12:50:07;95493.84;;;13.66;45.07
36192;BME280;22233;42.708;23.360;2024-03-08T12:52:34;95494.69;;;13.87;43.76
36192;BME280;22233;42.708;23.360;2024-03-08T12:54:59;95496.06;;;14.14;44.16
36192;BME280;22233;42.708;23.360;2024-03-08T12:57:32;95487.53;;;14.16;44.03
36192;BME280;22233;42.708;23.360;2024-03-08T12:59:59;95493.44;;;14.27;42.69
36192;BME280;22233;42.708;23.360;2024-03-08T13:02:24;95484.00;;;14.36;43.06
36192;BME280;22233;42.708;23.360;2024-03-08T13:04:51;95468.84;;;13.85;43.34